createdAt,value
2022-10-21T00:00:00.161Z,94.7
2022-10-21T00:05:00.156Z,94.7
2022-10-21T00:10:00.157Z,94.7
2022-10-21T00:15:00.152Z,94.7
2022-10-21T00:20:00.190Z,94.7
2022-10-21T00:25:00.164Z,94.7
2022-10-21T00:30:00.245Z,94.7
2022-10-21T00:35:00.209Z,94.7
2022-10-21T00:40:00.185Z,94.7
2022-10-21T00:45:00.200Z,94.4
2022-10-21T00:50:00.228Z,94.7
2022-10-21T00:55:00.207Z,94.1
2022-10-21T01:00:00.221Z,94.1
2022-10-21T01:05:00.181Z,94.7
2022-10-21T01:10:00.221Z,94.7
2022-10-21T01:15:00.314Z,94.7
2022-10-21T01:20:00.217Z,94.4
2022-10-21T01:25:00.227Z,94.4
2022-10-21T01:30:00.237Z,95
2022-10-21T01:35:00.231Z,95.3
2022-10-21T01:40:00.251Z,95.3
2022-10-21T01:45:00.247Z,94.7
2022-10-21T01:50:00.266Z,95
2022-10-21T01:55:00.266Z,95.3
2022-10-21T02:00:00.266Z,95.3
2022-10-21T02:05:01.052Z,95.3
2022-10-21T02:10:01.062Z,95
2022-10-21T02:15:01.065Z,95.3
2022-10-21T02:20:01.054Z,95.3
2022-10-21T02:25:01.054Z,94.7
2022-10-21T02:30:01.065Z,95
2022-10-21T02:35:01.076Z,95.1
2022-10-21T02:40:01.079Z,94.7
2022-10-21T02:45:01.085Z,94.7
2022-10-21T02:50:01.078Z,94.7
2022-10-21T02:55:01.095Z,94.7
2022-10-21T03:00:01.120Z,94.7
2022-10-21T03:05:01.106Z,94.7
2022-10-21T03:10:01.121Z,95
2022-10-21T03:15:01.127Z,95.6
2022-10-21T03:20:01.115Z,96
2022-10-21T03:25:01.115Z,96
2022-10-21T03:30:01.132Z,95.7
2022-10-21T03:35:01.124Z,95.6
2022-10-21T03:40:01.130Z,95.3
2022-10-21T03:45:01.157Z,95.7
2022-10-21T03:50:01.143Z,95.7
2022-10-21T03:55:01.147Z,95.7
2022-10-21T04:00:01.239Z,95.4
2022-10-21T04:05:01.161Z,95
2022-10-21T04:10:01.167Z,95.1
2022-10-21T04:15:01.181Z,94.7
2022-10-21T04:20:01.184Z,94.4
2022-10-21T04:25:03.933Z,94.4
2022-10-21T04:30:01.184Z,94.7
2022-10-21T04:35:01.185Z,94.7
2022-10-21T04:40:01.206Z,94.7
2022-10-21T04:45:01.206Z,94.4
2022-10-21T04:50:01.900Z,94.4
2022-10-21T04:55:01.313Z,94.7
2022-10-21T05:00:01.334Z,94.7
2022-10-21T05:05:01.284Z,94.4
2022-10-21T05:10:01.377Z,94.7
2022-10-21T05:15:01.313Z,94.7
2022-10-21T05:20:01.331Z,94.7
2022-10-21T05:25:00.150Z,94.7
2022-10-21T05:30:00.232Z,94.7
2022-10-21T05:35:00.189Z,95
2022-10-21T05:40:00.218Z,95
2022-10-21T05:45:00.208Z,94.7
2022-10-21T05:50:00.203Z,94.7
2022-10-21T05:55:00.217Z,94.7
2022-10-21T06:00:00.211Z,94.4
2022-10-21T06:05:00.281Z,94.1
2022-10-21T06:10:00.219Z,93.8
2022-10-21T06:15:00.261Z,93.8
2022-10-21T06:20:00.233Z,93.8
2022-10-21T06:25:00.241Z,93.8
2022-10-21T06:30:00.255Z,94.1
2022-10-21T06:35:00.245Z,94.4
2022-10-21T06:40:00.270Z,94.4
2022-10-21T06:45:00.608Z,94.7
2022-10-21T06:50:00.268Z,95
2022-10-21T06:55:00.265Z,95.4
2022-10-21T07:00:00.295Z,95
2022-10-21T07:05:00.281Z,95.4
2022-10-21T07:10:00.273Z,95.1
2022-10-21T07:15:00.310Z,95.1
2022-10-21T07:20:00.288Z,94.8
2022-10-21T07:35:00.299Z,94.2
2022-10-21T07:40:00.293Z,93.9
2022-10-21T07:45:00.303Z,94.2
2022-10-21T07:50:00.300Z,94.2
2022-10-21T07:55:00.310Z,93.9
2022-10-21T08:00:02.076Z,93.6
2022-10-21T08:05:00.314Z,93.6
2022-10-21T08:10:00.577Z,93.3
2022-10-21T08:15:00.332Z,93.1
2022-10-21T08:20:00.383Z,92.5
2022-10-21T08:25:00.339Z,92.4
2022-10-21T08:30:00.368Z,92.1
2022-10-21T08:35:00.352Z,92.1
2022-10-21T08:40:00.376Z,92.4
2022-10-21T08:45:00.370Z,93
2022-10-21T08:50:00.415Z,94.6
2022-10-21T08:55:00.374Z,96.2
2022-10-21T09:00:00.391Z,95.8
2022-10-21T09:05:00.403Z,94.9
2022-10-21T09:10:00.384Z,94.6
2022-10-21T09:15:00.409Z,93.6
2022-10-21T09:20:00.403Z,93.4
2022-10-21T09:25:00.403Z,93
2022-10-21T09:30:00.424Z,92.5
2022-10-21T09:35:00.418Z,92.8
2022-10-21T09:40:00.428Z,93
2022-10-21T09:45:00.420Z,93.1
2022-10-21T09:50:08.047Z,92.4
2022-10-21T09:55:00.431Z,92.4
2022-10-21T10:00:00.427Z,92.4
2022-10-21T10:05:00.438Z,92.4
2022-10-21T10:10:00.442Z,92.4
2022-10-21T10:15:00.459Z,92.5
2022-10-21T10:20:00.463Z,92.4
2022-10-21T10:25:00.457Z,92.1
2022-10-21T10:30:00.457Z,92.2
2022-10-21T10:35:00.462Z,91.6
2022-10-21T10:40:00.469Z,91.3
2022-10-21T10:45:00.480Z,90.6
2022-10-21T10:50:00.474Z,90.7
2022-10-21T10:55:00.488Z,91
2022-10-21T11:00:00.495Z,91
2022-10-21T11:05:00.562Z,91.3
2022-10-21T11:10:00.567Z,91.3
2022-10-21T11:15:00.569Z,90.7
2022-10-21T11:20:00.551Z,90.1
2022-10-21T11:25:00.426Z,90.2
2022-10-21T11:30:00.280Z,89.2
2022-10-21T11:40:00.139Z,89.2
2022-10-21T11:50:00.135Z,89.2
2022-10-21T11:55:09.299Z,89.5
2022-10-21T12:00:00.377Z,90.1
2022-10-21T12:05:00.148Z,89.5
2022-10-21T12:10:00.142Z,89.2
2022-10-21T12:15:00.154Z,89.5
2022-10-21T12:20:00.180Z,89.2
2022-10-21T12:25:00.155Z,89.3
2022-10-21T12:30:00.157Z,88.7
2022-10-21T12:35:00.181Z,88.7
2022-10-21T12:55:00.178Z,87.7
2022-10-21T13:00:00.174Z,88.4
2022-10-21T13:05:00.182Z,87.7
2022-10-21T13:10:00.206Z,87.4
2022-10-21T13:15:00.195Z,87.1
2022-10-21T13:20:00.205Z,87.1
2022-10-21T13:25:00.236Z,87.1
2022-10-21T13:30:00.244Z,87.7
2022-10-21T13:40:00.239Z,87.4
2022-10-21T13:45:00.253Z,87.4
2022-10-21T13:50:00.231Z,87.4
2022-10-21T13:55:00.265Z,87.8
2022-10-21T14:00:00.241Z,87.1
2022-10-21T14:05:00.258Z,87.1
2022-10-21T14:10:00.247Z,87.1
2022-10-21T14:15:00.258Z,87.1
2022-10-21T14:20:00.241Z,87.7
2022-10-21T14:25:00.247Z,87.7
2022-10-21T14:30:00.428Z,87.7
2022-10-21T14:35:00.254Z,87.7
2022-10-21T14:40:00.400Z,87.7
2022-10-21T14:45:00.268Z,87.7
2022-10-21T14:50:00.408Z,88.3
2022-10-21T14:55:00.272Z,88.3
2022-10-21T15:00:00.316Z,88.6
2022-10-21T15:05:00.356Z,89.2
2022-10-21T15:10:00.297Z,88.9
2022-10-21T15:15:00.321Z,88.9
2022-10-21T15:20:00.470Z,89.2
2022-10-21T15:25:00.318Z,88.9
2022-10-21T15:30:00.322Z,89.2
2022-10-21T15:35:00.331Z,89.5
2022-10-21T15:40:00.363Z,90.1
2022-10-21T15:45:00.343Z,90.1
2022-10-21T15:50:00.337Z,90.4
2022-10-21T15:55:00.342Z,90.7
2022-10-21T16:00:00.349Z,90.7
2022-10-21T16:05:00.356Z,90.7
2022-10-21T16:10:00.367Z,91
2022-10-21T16:15:00.368Z,91
2022-10-21T16:20:00.547Z,90.6
2022-10-21T16:25:00.390Z,91
2022-10-21T16:30:00.405Z,91.3
2022-10-21T16:35:00.390Z,91.2
2022-10-21T16:40:00.469Z,91
2022-10-21T16:45:00.459Z,91.2
2022-10-21T16:50:00.404Z,91.6
2022-10-21T16:55:00.481Z,91.2
2022-10-21T17:00:00.424Z,91.2
2022-10-21T17:05:00.445Z,91.2
2022-10-21T17:10:00.447Z,91.2
2022-10-21T17:15:00.471Z,91.2
2022-10-21T17:20:00.453Z,91.5
2022-10-21T17:25:00.484Z,91.5
2022-10-21T17:30:00.465Z,91.2
2022-10-21T17:35:00.483Z,91.2
2022-10-21T17:40:00.493Z,91.2
2022-10-21T17:45:03.686Z,91.5
2022-10-21T17:50:00.484Z,91.5
2022-10-21T17:55:00.487Z,91.1
2022-10-21T18:05:00.532Z,91.1
2022-10-21T18:10:00.526Z,91.1
2022-10-21T18:15:00.511Z,91.1
2022-10-21T18:20:00.515Z,90.4
2022-10-21T18:25:00.524Z,90.7
2022-10-21T18:30:00.575Z,90.7
2022-10-21T18:35:00.555Z,90.7
2022-10-21T18:40:00.562Z,91
2022-10-21T18:45:00.550Z,90.7
2022-10-21T18:50:00.427Z,91.3
2022-10-21T18:55:00.378Z,91.9
2022-10-21T19:00:00.176Z,92.2
2022-10-21T19:05:02.087Z,92.2
2022-10-21T19:10:00.171Z,92.5
2022-10-21T19:15:00.145Z,92.9
2022-10-21T19:20:00.167Z,92.9
2022-10-21T19:25:00.159Z,92.9
2022-10-21T19:30:00.165Z,92.9
2022-10-21T19:35:00.165Z,92.9
2022-10-21T19:40:00.183Z,92.6
2022-10-21T19:45:00.141Z,92.6
2022-10-21T19:50:00.229Z,92.9
2022-10-21T19:55:00.179Z,92.9
2022-10-21T20:00:00.231Z,92.9
2022-10-21T20:05:00.253Z,92.9
2022-10-21T20:10:00.284Z,92.3
2022-10-21T20:15:00.267Z,92.3
2022-10-21T20:20:00.254Z,92.9
2022-10-21T20:25:00.242Z,92.9
2022-10-21T20:30:00.252Z,92.6
2022-10-21T20:35:00.268Z,92.6
2022-10-21T20:40:00.266Z,92.9
2022-10-21T20:45:00.244Z,92.9
2022-10-21T20:55:00.290Z,92.9
2022-10-21T21:00:00.283Z,92.9
2022-10-21T21:05:00.321Z,92.9
2022-10-21T21:10:03.113Z,92.9
2022-10-21T21:15:00.281Z,92.9
2022-10-21T21:20:00.286Z,93.5
2022-10-21T21:25:00.308Z,93.2
2022-10-21T21:30:00.413Z,93.6
2022-10-21T21:35:03.623Z,93.5
2022-10-21T21:40:01.385Z,92.9
2022-10-21T21:45:00.313Z,92.9
2022-10-21T21:50:00.374Z,92.9
2022-10-21T21:55:00.367Z,92.9
2022-10-21T22:00:00.299Z,92.9
2022-10-21T22:05:00.307Z,93.5
2022-10-21T22:10:00.299Z,93.9
2022-10-21T22:15:00.331Z,93.2
2022-10-21T22:20:00.365Z,90.6
2022-10-21T22:25:00.308Z,90.2
2022-10-21T22:30:00.313Z,90.2
2022-10-21T22:35:01.167Z,90.5
2022-10-21T22:40:00.316Z,90.5
2022-10-21T22:45:00.332Z,90.8
2022-10-21T22:50:00.353Z,91.1
2022-10-21T22:55:00.445Z,91.1
2022-10-21T23:00:00.516Z,91.7
2022-10-21T23:05:00.369Z,91.4
2022-10-21T23:10:00.511Z,91.4
2022-10-21T23:15:00.464Z,91.4
2022-10-21T23:20:00.375Z,91.7
2022-10-21T23:25:00.371Z,92
2022-10-21T23:30:00.371Z,92
2022-10-21T23:35:00.389Z,91.7
2022-10-21T23:40:00.406Z,92
2022-10-21T23:45:00.389Z,92
2022-10-21T23:50:00.410Z,92
2022-10-21T23:55:00.399Z,92.3
